Time;durP1;ratioP1;P1;durP2;ratioP2;P2;SDS_P1;SDS_P2;PMS_P1;PMS_P2;Temp;Humidity;BMP_temperature;BMP_pressure;BME280_temperature;BME280_humidity;BME280_pressure;Samples;Min_cycle;Max_cycle;Signal;HPM_P1;HPM_P2
2022/02/01 00:02:01;;;;;;;55.95;23.73;;;;;;;1.36;76.25;96285.47;4999386;28;20555;-77
2022/02/01 00:05:16;;;;;;;76.28;31.45;;;;;;;1.34;76.03;96282.06;5015562;28;20029;-77
2022/02/01 00:07:33;;;;;;;43.55;19.05;;;;;;;1.32;77.39;96290.97;5001452;28;20061;-78
2022/02/01 00:10:11;;;;;;;45.55;19.75;;;;;;;1.34;77.27;96297.88;5007993;28;20040;-77
2022/02/01 00:12:59;;;;;;;52.65;19.67;;;;;;;1.32;76.24;96297.09;4999822;28;20040;-77
2022/02/01 00:37:00;;;;;;;44.72;18.05;;;;;;;1.53;73.74;96248.69;4982184;28;20042;-79
2022/02/01 00:39:42;;;;;;;50.47;21.33;;;;;;;1.48;73.21;96257.69;4974181;28;20412;-76
2022/02/01 00:42:08;;;;;;;50.22;20.02;;;;;;;1.48;73.27;96245.38;4973094;28;20515;-77
2022/02/01 00:44:34;;;;;;;51.95;20.40;;;;;;;1.54;73.61;96242.47;4986841;28;20026;-77
2022/02/01 00:46:59;;;;;;;39.65;17.50;;;;;;;1.55;71.75;96241.53;4967146;28;20173;-78
2022/02/01 00:49:27;;;;;;;41.42;16.80;;;;;;;1.60;71.54;96236.91;4974610;28;20030;-77
2022/02/01 00:51:53;;;;;;;41.58;16.45;;;;;;;1.42;72.47;96234.28;4975324;28;20037;-77
2022/02/01 00:54:18;;;;;;;41.08;17.13;;;;;;;1.51;73.71;96236.47;4963328;28;20023;-77
2022/02/01 00:56:44;;;;;;;37.58;16.45;;;;;;;1.49;74.06;96226.03;4974731;28;20030;-77
2022/02/01 00:59:09;;;;;;;30.35;12.50;;;;;;;1.52;72.31;96214.50;4973964;28;20390;-78
2022/02/01 01:01:35;;;;;;;42.15;17.95;;;;;;;1.47;71.80;96220.00;4979821;28;20049;-78
2022/02/01 01:04:00;;;;;;;39.38;15.27;;;;;;;1.62;72.83;96219.25;4984033;28;20383;-77
2022/02/01 01:06:28;;;;;;;40.28;14.95;;;;;;;1.63;71.80;96209.56;4987662;28;20092;-78
2022/02/01 01:08:54;;;;;;;38.40;14.00;;;;;;;1.71;71.20;96203.91;4984943;28;20045;-77
2022/02/01 01:11:20;;;;;;;31.83;11.13;;;;;;;1.73;69.10;96189.72;4975745;28;20023;-77
2022/02/01 01:43:36;;;;;;;59.50;27.70;;;;;;;1.88;70.44;96164.38;5019740;28;20053;-78
2022/02/01 01:54:02;;;;;;;49.92;21.63;;;;;;;1.76;70.36;96162.38;5019522;28;20036;-77
2022/02/01 01:56:32;;;;;;;43.78;21.25;;;;;;;1.72;72.01;96159.06;5000735;28;20025;-78
2022/02/01 01:59:01;;;;;;;51.88;22.83;;;;;;;1.63;71.65;96147.16;5005827;28;20120;-77
2022/02/01 02:01:30;;;;;;;74.18;27.42;;;;;;;1.64;71.40;96142.75;5016982;28;20060;-77
2022/02/01 02:03:56;;;;;;;42.45;19.65;;;;;;;1.50;71.75;96146.09;5016299;28;20446;-77
2022/02/01 02:06:21;;;;;;;42.58;18.27;;;;;;;1.58;70.96;96143.06;5000144;28;20040;-77
2022/02/01 02:08:53;;;;;;;46.70;19.27;;;;;;;1.57;71.24;96144.84;5000077;28;20029;-78
2022/02/01 02:11:31;;;;;;;44.93;18.93;;;;;;;1.57;71.35;96165.06;5017241;28;20040;-78
2022/02/01 02:16:45;;;;;;;42.75;18.33;;;;;;;1.54;72.29;96166.06;5019048;28;20183;-78
2022/02/01 02:19:11;;;;;;;52.63;22.15;;;;;;;1.55;72.21;96157.25;4999847;28;20032;-78
2022/02/01 02:21:38;;;;;;;44.33;21.15;;;;;;;1.58;72.52;96156.22;4999798;28;20099;-78
2022/02/01 02:24:05;;;;;;;53.65;25.35;;;;;;;1.56;72.11;96153.69;5016400;28;20041;-78
2022/02/01 02:26:31;;;;;;;41.25;18.50;;;;;;;1.54;71.61;96136.22;4999654;28;20146;-77
2022/02/01 02:28:59;;;;;;;36.72;18.67;;;;;;;1.54;72.21;96144.97;5015866;28;20029;-78
2022/02/01 02:31:24;;;;;;;42.72;19.17;;;;;;;1.52;72.93;96144.22;5000223;28;20056;-77
2022/02/01 02:34:05;;;;;;;59.60;23.45;;;;;;;1.55;74.16;96165.16;5015513;28;20052;-78
2022/02/01 02:36:32;;;;;;;51.17;21.77;;;;;;;1.42;74.55;96150.00;5000766;28;20025;-78
2022/02/01 02:39:09;;;;;;;41.10;18.80;;;;;;;1.37;75.50;96142.34;5017140;28;20029;-78
2022/02/01 02:41:38;;;;;;;39.83;18.52;;;;;;;1.36;75.81;96145.88;5033746;28;20472;-78
2022/02/01 02:46:50;;;;;;;36.65;17.73;;;;;;;1.46;75.00;96139.25;5018476;28;20036;-78
2022/02/01 02:49:19;;;;;;;40.25;17.85;;;;;;;1.49;75.34;96144.38;5015611;28;20036;-78
2022/02/01 02:51:45;;;;;;;43.40;16.95;;;;;;;1.43;75.55;96147.31;5015680;28;20025;-79
2022/02/01 02:54:21;;;;;;;44.55;18.67;;;;;;;1.47;74.82;96146.25;5015378;28;20393;-79
2022/02/01 02:56:55;;;;;;;42.53;18.42;;;;;;;1.45;75.88;96145.44;5015272;28;20037;-77
2022/02/01 02:59:22;;;;;;;42.17;19.48;;;;;;;1.50;75.43;96142.59;5015271;28;20068;-77
2022/02/01 03:01:48;;;;;;;48.25;20.13;;;;;;;1.54;75.17;96144.97;4998994;28;20552;-77
2022/02/01 03:04:19;;;;;;;53.08;21.17;;;;;;;1.56;75.06;96145.78;5015441;28;20044;-76
2022/02/01 03:06:46;;;;;;;54.88;22.55;;;;;;;1.66;75.17;96161.13;5015497;28;20025;-77
2022/02/01 03:09:12;;;;;;;51.38;21.40;;;;;;;1.63;75.46;96165.59;5015145;28;20053;-78
2022/02/01 03:11:39;;;;;;;62.97;26.30;;;;;;;1.62;75.35;96165.69;4998741;28;20124;-78
2022/02/01 03:14:18;;;;;;;60.65;25.55;;;;;;;1.65;75.36;96157.66;5015233;28;20029;-78
2022/02/01 03:22:00;;;;;;;35.92;17.10;;;;;;;1.46;74.74;96147.16;5017999;28;20571;-77
2022/02/01 03:24:26;;;;;;;51.65;18.02;;;;;;;1.26;74.99;96118.28;4998672;28;20030;-77
2022/02/01 03:26:52;;;;;;;38.08;15.60;;;;;;;1.51;74.31;96131.97;5014888;28;20120;-77
2022/02/01 03:29:17;;;;;;;38.08;16.25;;;;;;;1.59;73.69;96119.28;5014983;28;20469;-77
2022/02/01 03:31:43;;;;;;;36.65;16.13;;;;;;;1.58;74.49;96136.00;5015044;28;20424;-78
2022/02/01 03:34:08;;;;;;;43.78;16.75;;;;;;;1.53;74.39;96124.84;5014749;28;20036;-77
2022/02/01 03:36:34;;;;;;;35.67;17.40;;;;;;;1.54;75.59;96123.91;5014535;28;20037;-78
2022/02/01 03:39:00;;;;;;;47.17;19.90;;;;;;;1.50;75.12;96127.66;5014874;28;20099;-77
2022/02/01 03:41:26;;;;;;;45.92;18.88;;;;;;;1.49;75.03;96119.81;4998345;28;20099;-78
2022/02/01 03:43:52;;;;;;;41.15;18.65;;;;;;;1.59;74.21;96121.91;5013436;28;20029;-78
2022/02/01 03:46:17;;;;;;;39.95;17.38;;;;;;;1.53;74.77;96126.63;4998399;28;20466;-78
2022/02/01 03:48:43;;;;;;;45.45;19.27;;;;;;;1.60;74.93;96113.06;4998472;28;20037;-78
2022/02/01 03:51:09;;;;;;;41.22;17.55;;;;;;;1.53;74.82;96114.31;5014593;28;20060;-78
2022/02/01 03:53:35;;;;;;;43.72;19.10;;;;;;;1.52;74.53;96103.84;5014236;28;20091;-79
2022/02/01 03:56:02;;;;;;;43.45;19.67;;;;;;;1.51;75.95;96125.84;4998173;28;20026;-79
2022/02/01 03:58:28;;;;;;;45.33;20.77;;;;;;;1.37;75.93;96115.13;4998161;28;20487;-79
2022/02/01 04:00:53;;;;;;;53.90;19.85;;;;;;;1.15;76.91;96106.56;5014294;28;20128;-79
2022/02/01 04:03:19;;;;;;;55.70;20.35;;;;;;;1.13;78.36;96122.47;5014551;28;20049;-79
2022/02/01 04:05:44;;;;;;;41.22;18.45;;;;;;;1.15;78.16;96115.31;5013816;28;20512;-77
2022/02/01 04:08:12;;;;;;;46.83;19.85;;;;;;;1.21;78.51;96103.63;5014332;28;20063;-77
2022/02/01 04:10:38;;;;;;;43.90;19.73;;;;;;;1.30;78.83;96108.47;4998175;28;20033;-77
2022/02/01 04:13:04;;;;;;;47.33;21.27;;;;;;;1.39;77.77;96105.38;4997817;28;20029;-78
2022/02/01 04:15:30;;;;;;;56.67;23.77;;;;;;;1.44;77.09;96104.25;5014399;28;20401;-78
2022/02/01 04:17:56;;;;;;;56.45;24.45;;;;;;;1.48;76.36;96112.81;5014394;28;20120;-77
2022/02/01 04:20:22;;;;;;;53.55;24.95;;;;;;;1.55;76.51;96115.09;4998060;28;20603;-77
2022/02/01 04:22:48;;;;;;;63.53;29.17;;;;;;;1.53;75.80;96106.41;4997740;28;20033;-78
2022/02/01 04:25:14;;;;;;;70.72;30.55;;;;;;;1.61;76.07;96117.41;5014234;28;20033;-77
2022/02/01 04:27:40;;;;;;;78.05;31.75;;;;;;;1.60;76.11;96118.34;5013652;28;20068;-79
2022/02/01 04:30:08;;;;;;;71.10;32.15;;;;;;;1.52;76.53;96120.50;5014229;28;20113;-77
2022/02/01 04:32:36;;;;;;;74.47;32.53;;;;;;;1.52;77.57;96123.16;5014398;28;20037;-78
2022/02/01 04:35:04;;;;;;;77.93;28.67;;;;;;;1.57;76.74;96113.22;4983136;28;20128;-77
2022/02/01 04:37:30;;;;;;;78.47;31.90;;;;;;;1.59;76.26;96105.25;5013975;28;20029;-77
2022/02/01 04:39:56;;;;;;;72.07;28.98;;;;;;;1.61;77.28;96125.31;4997345;28;20164;-78
2022/02/01 04:42:24;;;;;;;81.25;35.40;;;;;;;1.52;77.53;96115.25;4997489;28;20033;-78
2022/02/01 04:44:49;;;;;;;101.35;40.20;;;;;;;1.34;78.10;96105.63;4997869;28;20104;-78
2022/02/01 04:47:15;;;;;;;115.60;47.47;;;;;;;1.41;78.39;96125.47;5014054;28;20018;-77
2022/02/01 04:49:41;;;;;;;108.53;45.08;;;;;;;1.39;78.87;96129.06;4997454;28;20496;-78
2022/02/01 04:52:07;;;;;;;104.70;44.83;;;;;;;1.50;78.43;96126.78;5014222;28;20556;-77
2022/02/01 04:54:32;;;;;;;100.30;45.97;;;;;;;1.54;77.65;96126.53;4994265;28;20026;-77
2022/02/01 04:56:58;;;;;;;103.32;43.83;;;;;;;1.51;77.59;96124.06;5013905;28;20030;-77
2022/02/01 04:59:23;;;;;;;97.78;40.20;;;;;;;1.50;78.29;96132.06;5013981;28;20142;-78
2022/02/01 05:01:49;;;;;;;118.05;47.58;;;;;;;1.55;77.80;96141.44;5013734;28;20065;-77
2022/02/01 05:04:19;;;;;;;103.68;45.75;;;;;;;1.62;78.44;96147.25;4997323;28;20069;-73
2022/02/01 05:06:53;;;;;;;102.38;45.63;;;;;;;1.61;78.43;96145.53;5034159;28;20029;-73
2022/02/01 05:09:20;;;;;;;111.22;44.25;;;;;;;1.57;77.77;96143.97;5017496;28;20120;-73
2022/02/01 05:11:46;;;;;;;114.95;48.58;;;;;;;1.43;78.17;96139.41;5017438;28;20029;-73
2022/02/01 05:14:20;;;;;;;108.75;44.97;;;;;;;1.42;78.93;96150.00;5000823;28;20025;-73
2022/02/01 05:22:01;;;;;;;221.13;73.97;;;;;;;1.46;79.03;96146.28;5018518;28;20026;-73
2022/02/01 05:24:27;;;;;;;182.98;61.60;;;;;;;1.42;79.12;96140.31;5026782;28;20029;-75
2022/02/01 05:26:57;;;;;;;200.23;66.18;;;;;;;1.53;78.66;96156.47;5015272;28;20122;-73
2022/02/01 05:29:23;;;;;;;202.02;67.50;;;;;;;1.55;78.99;96162.50;5026291;28;20542;-73
2022/02/01 05:31:51;;;;;;;216.48;70.50;;;;;;;1.35;79.52;96165.28;5000610;28;20030;-74
2022/02/01 05:34:17;;;;;;;145.85;51.08;;;;;;;1.34;80.29;96160.91;5010775;28;20448;-74
2022/02/01 05:36:42;;;;;;;148.45;50.88;;;;;;;1.41;80.42;96164.97;5009685;28;20025;-73
2022/02/01 05:39:13;;;;;;;137.32;51.45;;;;;;;1.34;80.86;96178.50;5015870;28;20083;-72
2022/02/01 05:41:39;;;;;;;133.07;49.13;;;;;;;1.29;81.58;96189.25;5008005;28;20039;-73
2022/02/01 05:44:05;;;;;;;118.25;50.67;;;;;;;1.24;81.50;96182.47;4999195;28;20112;-74
2022/02/01 05:46:31;;;;;;;156.80;64.65;;;;;;;1.26;82.29;96194.66;5034422;28;20468;-74
2022/02/01 05:48:56;;;;;;;123.38;54.03;;;;;;;1.29;81.25;96197.16;5016661;28;20040;-74
2022/02/01 05:51:23;;;;;;;120.50;52.38;;;;;;;1.47;80.09;96204.19;5034514;28;20489;-73
2022/02/01 05:53:49;;;;;;;143.95;58.33;;;;;;;1.53;80.11;96214.44;5009047;28;20030;-74
2022/02/01 05:56:14;;;;;;;151.65;62.67;;;;;;;1.61;79.60;96228.06;5007588;28;20120;-75
2022/02/01 05:58:40;;;;;;;137.43;59.13;;;;;;;1.60;78.69;96223.72;5032850;28;20485;-74
2022/02/01 06:01:05;;;;;;;153.85;65.68;;;;;;;1.62;79.09;96216.63;5004328;28;20041;-75
2022/02/01 06:03:31;;;;;;;147.18;55.85;;;;;;;1.72;78.87;96232.84;5007671;28;20040;-75
2022/02/01 06:05:56;;;;;;;137.13;54.65;;;;;;;1.73;78.94;96236.31;5031926;28;20030;-75
2022/02/01 06:08:22;;;;;;;155.50;60.47;;;;;;;1.71;78.78;96214.44;4987637;28;20409;-73
2022/02/01 06:10:47;;;;;;;162.82;66.70;;;;;;;1.97;78.29;96243.03;5007567;28;20033;-79
2022/02/01 06:13:13;;;;;;;156.60;63.50;;;;;;;1.79;77.49;96233.38;5012767;28;20486;-79
2022/02/01 06:15:38;;;;;;;138.95;50.13;;;;;;;1.88;76.74;96233.78;4996684;28;20033;-77
2022/02/01 06:18:04;;;;;;;78.82;33.20;;;;;;;1.63;78.68;96239.38;5005067;28;20489;-78
2022/02/01 06:20:30;;;;;;;64.90;27.05;;;;;;;1.37;81.47;96260.00;5015099;28;20485;-79
2022/02/01 06:22:56;;;;;;;61.63;25.88;;;;;;;1.39;81.64;96259.00;4991970;28;20033;-83
2022/02/01 06:25:45;;;;;;;53.38;23.98;;;;;;;1.33;82.30;96269.81;5006977;28;20034;-79
2022/02/01 06:28:06;;;;;;;61.80;23.88;;;;;;;1.29;82.45;96263.00;4999798;28;20046;-79
2022/02/01 06:30:32;;;;;;;64.10;25.00;;;;;;;1.34;82.49;96268.03;4996922;28;20026;-79
2022/02/01 06:32:58;;;;;;;57.72;26.02;;;;;;;1.42;82.49;96272.00;5004417;28;20038;-81
2022/02/01 06:35:24;;;;;;;70.63;28.23;;;;;;;1.55;81.56;96272.31;5005847;28;20037;-79
2022/02/01 06:37:50;;;;;;;105.53;43.58;;;;;;;1.72;78.82;96274.16;4999817;28;20045;-79
2022/02/01 06:40:18;;;;;;;85.60;37.65;;;;;;;1.81;77.69;96276.34;4999340;28;20034;-81
2022/02/01 06:42:44;;;;;;;84.57;36.88;;;;;;;1.76;78.12;96297.63;5016415;28;20044;-79
2022/02/01 06:45:10;;;;;;;95.75;43.03;;;;;;;1.67;78.55;96305.13;5005358;28;20497;-80
2022/02/01 06:47:36;;;;;;;106.38;44.67;;;;;;;1.76;78.13;96307.31;4996789;28;20030;-79
2022/02/01 06:50:01;;;;;;;102.57;43.10;;;;;;;1.83;77.17;96303.47;5004241;28;20033;-80
2022/02/01 06:52:29;;;;;;;92.10;40.67;;;;;;;1.90;75.37;96296.97;5011379;28;20113;-79
2022/02/01 06:54:54;;;;;;;88.53;39.08;;;;;;;2.07;74.71;96318.09;5002600;28;20041;-79
2022/02/01 06:57:20;;;;;;;72.00;33.45;;;;;;;2.09;73.11;96308.34;5015356;28;20424;-79
2022/02/01 06:59:45;;;;;;;86.40;39.08;;;;;;;2.18;72.57;96321.09;4990753;28;20041;-80
2022/02/01 07:02:11;;;;;;;109.18;46.47;;;;;;;2.34;71.92;96327.31;5000770;28;20055;-80
2022/02/01 07:04:37;;;;;;;116.07;50.20;;;;;;;2.17;74.10;96335.19;4995803;28;20058;-79
2022/02/01 07:07:02;;;;;;;133.75;56.05;;;;;;;2.13;73.96;96326.56;4992515;28;20025;-78
2022/02/01 07:09:32;;;;;;;147.95;59.20;;;;;;;2.29;73.53;96339.88;4982299;28;20026;-79
2022/02/01 07:11:58;;;;;;;130.75;55.45;;;;;;;2.31;73.25;96347.72;5012189;28;20509;-78
2022/02/01 07:14:24;;;;;;;95.78;42.30;;;;;;;2.31;74.67;96358.28;5002221;28;20032;-80
2022/02/01 07:16:49;;;;;;;88.22;38.13;;;;;;;2.27;75.78;96361.97;4983820;28;20038;-78
2022/02/01 07:19:15;;;;;;;80.47;34.95;;;;;;;2.48;74.99;96360.94;4994587;28;20026;-79
2022/02/01 07:21:40;;;;;;;83.43;36.88;;;;;;;2.58;74.58;96363.06;4999913;28;20042;-78
2022/02/01 07:24:12;;;;;;;73.53;32.78;;;;;;;2.54;74.66;96360.63;5014123;28;20061;-77
2022/02/01 07:26:40;;;;;;;78.75;32.75;;;;;;;2.71;74.35;96377.31;5008601;28;20139;-80
2022/02/01 07:29:05;;;;;;;64.07;28.92;;;;;;;2.72;74.26;96370.25;5014063;28;20033;-74
2022/02/01 07:31:31;;;;;;;72.47;31.83;;;;;;;3.01;72.27;96382.88;5013252;28;20037;-80
2022/02/01 07:34:17;;;;;;;80.80;34.50;;;;;;;3.09;70.83;96348.97;5014325;28;20122;-80
2022/02/01 07:36:43;;;;;;;63.53;29.63;;;;;;;3.13;69.14;96386.66;4997757;28;20037;-79
2022/02/01 07:39:09;;;;;;;64.25;30.13;;;;;;;3.26;68.92;96385.94;5014665;28;20112;-78
2022/02/01 07:41:36;;;;;;;75.20;34.20;;;;;;;3.18;70.08;96395.19;5014194;28;20021;-78
2022/02/01 07:44:02;;;;;;;82.35;36.67;;;;;;;3.65;68.81;96414.72;5014583;28;20116;-78
2022/02/01 07:46:29;;;;;;;86.75;37.65;;;;;;;3.79;65.71;96398.09;5014390;28;20113;-80
2022/02/01 07:48:55;;;;;;;101.90;44.30;;;;;;;3.93;65.24;96394.72;5014936;28;20037;-79
2022/02/01 07:51:20;;;;;;;97.50;42.65;;;;;;;4.00;65.49;96396.13;5014472;28;20040;-80
2022/02/01 07:53:55;;;;;;;58.17;27.23;;;;;;;3.90;61.36;96386.97;5014534;28;20033;-79
2022/02/01 07:56:20;;;;;;;64.97;28.33;;;;;;;3.95;61.29;96392.84;5013776;28;20041;-79
2022/02/01 07:58:46;;;;;;;49.15;19.52;;;;;;;3.82;59.69;96379.44;5013970;28;20026;-79
2022/02/01 08:01:12;;;;;;;43.75;17.83;;;;;;;4.19;59.12;96388.84;5014256;28;20528;-80
2022/02/01 08:03:37;;;;;;;41.50;14.65;;;;;;;4.41;57.50;96399.94;5013984;28;20053;-80
2022/02/01 08:06:03;;;;;;;34.65;12.93;;;;;;;4.56;57.17;96401.72;5012659;28;20033;-73
2022/02/01 08:08:28;;;;;;;26.48;8.73;;;;;;;4.74;55.42;96400.69;5012755;28;20477;-73
2022/02/01 08:10:56;;;;;;;29.67;8.60;;;;;;;4.86;53.87;96397.31;5011634;28;20037;-79
2022/02/01 08:14:27;;;;;;;25.80;9.90;;;;;;;4.77;53.28;96402.28;4995510;28;20033;-74
2022/02/01 08:16:42;;;;;;;27.48;9.63;;;;;;;4.76;53.71;96420.00;5017241;28;20076;-74
2022/02/01 08:19:38;;;;;;;32.17;10.27;;;;;;;4.79;53.09;96430.44;5006576;28;20514;-75
2022/02/01 08:21:55;;;;;;;30.67;12.27;;;;;;;5.05;52.52;96428.03;5013844;28;20566;-74
2022/02/01 08:24:20;;;;;;;36.22;12.27;;;;;;;5.11;52.46;96430.34;5011647;28;20026;-75
2022/02/01 08:26:46;;;;;;;39.30;13.68;;;;;;;5.18;51.82;96427.25;5011569;28;20500;-76
2022/02/01 08:29:14;;;;;;;35.58;14.13;;;;;;;5.16;51.84;96438.91;4995765;28;20029;-74
2022/02/01 08:31:39;;;;;;;31.75;12.55;;;;;;;5.38;51.41;96440.16;5011161;28;20048;-73
2022/02/01 08:34:06;;;;;;;34.35;13.65;;;;;;;5.18;51.92;96443.16;5011698;28;20021;-74
2022/02/01 08:36:31;;;;;;;37.90;15.38;;;;;;;5.33;51.50;96444.91;5011631;28;20025;-74
2022/02/01 08:38:57;;;;;;;41.38;17.88;;;;;;;5.50;51.29;96428.00;5011446;28;20039;-74
2022/02/01 08:41:23;;;;;;;26.67;7.78;;;;;;;5.00;51.63;96422.16;5014344;28;20451;-77
2022/02/01 08:43:48;;;;;;;28.38;8.25;;;;;;;4.94;51.82;96423.38;5014987;28;20113;-79
2022/02/01 08:46:15;;;;;;;39.65;11.45;;;;;;;4.85;52.40;96438.03;4998910;28;20025;-83
2022/02/01 08:48:41;;;;;;;25.95;8.95;;;;;;;4.89;51.77;96441.34;4999971;28;20021;-83
2022/02/01 08:51:09;;;;;;;38.45;7.63;;;;;;;4.95;51.84;96451.59;5015761;28;20108;-83
2022/02/01 08:53:54;;;;;;;17.33;6.32;;;;;;;4.77;52.00;96442.03;5016061;28;20029;-82
2022/02/01 08:59:11;;;;;;;31.15;7.30;;;;;;;5.15;51.67;96453.06;4995723;28;20037;-83
2022/02/01 09:01:37;;;;;;;18.65;5.53;;;;;;;5.31;50.81;96453.91;4999175;28;20048;-83
2022/02/01 09:04:02;;;;;;;26.00;6.90;;;;;;;5.11;51.48;96452.41;4998767;28;20053;-83
2022/02/01 09:06:28;;;;;;;28.45;5.43;;;;;;;4.92;51.33;96443.81;5016156;28;20029;-83
2022/02/01 09:08:53;;;;;;;24.98;6.50;;;;;;;4.89;51.92;96447.47;5015687;28;20120;-84
2022/02/01 09:11:39;;;;;;;18.80;6.70;;;;;;;5.10;51.36;96452.50;4999675;28;20028;-83
2022/02/01 09:14:04;;;;;;;21.05;5.95;;;;;;;5.12;51.11;96454.13;5017800;28;20033;-83
2022/02/01 09:16:30;;;;;;;35.45;10.65;;;;;;;5.02;51.45;96449.41;5014508;28;20495;-83
2022/02/01 09:18:56;;;;;;;18.83;6.63;;;;;;;4.85;51.21;96455.69;5015071;28;20022;-83
2022/02/01 09:21:21;;;;;;;35.80;12.95;;;;;;;4.84;51.63;96454.84;5013919;28;20087;-83
2022/02/01 09:23:47;;;;;;;25.55;9.30;;;;;;;5.17;51.57;96452.03;5015320;28;20025;-83
2022/02/01 09:26:12;;;;;;;37.53;10.52;;;;;;;5.40;50.88;96453.34;4997987;28;20567;-83
2022/02/01 09:28:39;;;;;;;21.45;5.15;;;;;;;5.14;50.30;96446.91;5014695;28;20068;-84
2022/02/01 09:31:05;;;;;;;41.25;8.10;;;;;;;5.17;51.22;96445.91;5014627;28;20552;-84
2022/02/01 09:33:31;;;;;;;39.33;11.80;;;;;;;5.44;50.62;96460.19;4998156;28;20406;-83
2022/02/01 09:35:57;;;;;;;31.73;11.73;;;;;;;5.33;50.50;96462.59;4998060;28;20029;-83
2022/02/01 09:38:23;;;;;;;40.10;13.55;;;;;;;5.34;50.75;96459.00;5014348;28;20517;-83
2022/02/01 09:40:48;;;;;;;31.73;12.27;;;;;;;5.56;50.37;96455.94;5014579;28;20516;-83
2022/02/01 09:43:17;;;;;;;33.67;11.75;;;;;;;5.71;49.79;96449.72;4997656;28;20036;-86
2022/02/01 09:45:43;;;;;;;27.67;9.35;;;;;;;5.53;50.38;96437.56;5010528;28;20033;-74
2022/02/01 09:48:08;;;;;;;40.85;15.55;;;;;;;5.73;49.87;96443.38;5013785;28;20059;-75
2022/02/01 09:50:35;;;;;;;27.13;10.27;;;;;;;5.63;49.48;96444.88;5013242;28;20030;-73
2022/02/01 09:53:01;;;;;;;42.13;14.07;;;;;;;5.70;49.98;96435.59;5014213;28;20048;-74
2022/02/01 09:55:26;;;;;;;35.25;13.40;;;;;;;5.79;49.93;96445.66;5014006;28;20098;-74
2022/02/01 09:57:53;;;;;;;24.25;9.40;;;;;;;5.60;50.14;96439.75;5013662;28;20104;-73
2022/02/01 10:00:21;;;;;;;23.42;8.40;;;;;;;5.58;50.07;96449.59;5013718;28;20493;-74
2022/02/01 10:02:52;;;;;;;24.65;8.00;;;;;;;5.51;50.05;96448.25;5007861;28;20108;-80
2022/02/01 10:05:18;;;;;;;28.48;9.75;;;;;;;5.44;50.77;96445.09;4996848;28;20033;-81
2022/02/01 10:07:47;;;;;;;25.48;6.97;;;;;;;5.89;49.53;96451.28;4997186;28;20116;-79
2022/02/01 10:10:13;;;;;;;27.77;8.57;;;;;;;5.85;48.97;96445.31;5016844;28;20037;-82
2022/02/01 10:12:39;;;;;;;20.27;6.90;;;;;;;5.95;48.46;96446.47;5016619;28;20108;-80
2022/02/01 10:17:40;;;;;;;18.65;5.28;;;;;;;5.91;48.10;96442.28;5016991;28;20049;-78
2022/02/01 10:20:06;;;;;;;23.00;6.43;;;;;;;6.08;48.25;96445.72;5001041;28;20509;-78
2022/02/01 10:22:33;;;;;;;35.83;10.70;;;;;;;5.79;49.16;96452.75;5000044;28;20036;-79
2022/02/01 10:25:03;;;;;;;20.92;8.60;;;;;;;5.86;48.89;96447.03;5000241;28;20385;-78
2022/02/01 10:27:31;;;;;;;33.88;11.68;;;;;;;6.06;48.11;96447.63;4996482;28;20038;-80
2022/02/01 10:30:12;;;;;;;27.20;9.52;;;;;;;5.78;48.51;96448.41;4980348;28;20413;-79
2022/02/01 10:37:58;;;;;;;26.38;8.20;;;;;;;5.69;49.23;96465.72;4996018;28;20125;-79
2022/02/01 10:40:35;;;;;;;18.58;4.60;;;;;;;5.46;49.00;96448.53;4995736;28;20501;-79
2022/02/01 10:43:04;;;;;;;24.33;7.88;;;;;;;5.69;49.12;96443.66;4980252;28;20041;-79
2022/02/01 10:45:31;;;;;;;36.28;10.07;;;;;;;5.90;49.11;96442.38;4997331;28;20029;-80
2022/02/01 10:47:57;;;;;;;33.78;10.70;;;;;;;5.75;48.18;96446.78;4997098;28;20021;-80
2022/02/01 10:50:27;;;;;;;45.70;13.55;;;;;;;5.51;49.77;96450.06;4996530;28;20089;-80
2022/02/01 10:52:55;;;;;;;21.50;7.68;;;;;;;5.72;48.89;96459.41;4996304;28;20028;-80
2022/02/01 10:55:21;;;;;;;27.30;8.18;;;;;;;5.84;48.63;96432.97;4996268;28;20418;-79
2022/02/01 10:57:48;;;;;;;23.05;5.50;;;;;;;5.83;48.71;96431.25;4979610;28;20421;-79
2022/02/01 11:00:16;;;;;;;32.55;7.80;;;;;;;5.73;48.92;96445.16;4980245;28;20387;-80
2022/02/01 11:02:43;;;;;;;27.67;10.50;;;;;;;5.90;48.88;96442.38;4995143;28;20057;-80
2022/02/01 11:05:10;;;;;;;36.88;12.95;;;;;;;5.77;48.94;96447.56;4996039;28;20026;-79
2022/02/01 11:07:37;;;;;;;26.77;9.05;;;;;;;5.58;48.91;96441.66;4995856;28;20041;-80
2022/02/01 11:10:07;;;;;;;40.35;11.63;;;;;;;5.80;49.01;96446.50;4995671;28;20478;-80
2022/02/01 11:12:34;;;;;;;34.50;12.93;;;;;;;6.05;48.32;96443.25;4979579;28;20026;-81
2022/02/01 11:15:00;;;;;;;38.50;13.45;;;;;;;5.84;48.72;96432.97;4971544;28;20282;-80
2022/02/01 11:17:25;;;;;;;31.77;11.70;;;;;;;5.87;48.78;96442.59;4979274;28;20406;-81
2022/02/01 11:19:54;;;;;;;22.45;6.60;;;;;;;5.64;49.12;96443.94;4979347;28;20378;-79
2022/02/01 11:22:25;;;;;;;14.30;4.45;;;;;;;5.53;49.18;96448.19;4979243;28;20095;-83
2022/02/01 11:24:53;;;;;;;20.83;7.43;;;;;;;5.43;49.80;96439.91;5011559;28;20029;-81
2022/02/01 11:27:37;;;;;;;23.85;5.45;;;;;;;5.06;50.23;96427.97;4979164;28;20505;-81
2022/02/01 11:30:11;;;;;;;26.20;5.38;;;;;;;5.04;50.73;96431.66;4995461;28;20041;-79
2022/02/01 11:32:40;;;;;;;22.70;6.00;;;;;;;5.29;50.17;96423.97;4979225;28;20018;-80
2022/02/01 11:35:11;;;;;;;28.00;7.22;;;;;;;5.52;49.59;96425.25;4995706;28;20521;-80
2022/02/01 11:38:16;;;;;;;18.70;6.50;;;;;;;5.67;49.57;96440.22;4979437;28;20034;-79
2022/02/01 11:40:48;;;;;;;18.52;4.90;;;;;;;5.55;49.47;96433.00;4986744;28;20124;-80
2022/02/01 11:43:17;;;;;;;34.53;11.68;;;;;;;5.82;49.38;96429.53;4979735;28;20037;-80
2022/02/01 11:45:55;;;;;;;28.33;10.93;;;;;;;5.69;48.96;96430.41;4979012;28;20060;-81
2022/02/01 11:48:25;;;;;;;35.67;15.10;;;;;;;5.65;49.49;96437.69;4979014;28;20431;-78
2022/02/01 11:51:05;;;;;;;35.53;13.80;;;;;;;5.54;49.29;96439.28;5011455;28;20486;-80
2022/02/01 11:53:33;;;;;;;51.60;17.23;;;;;;;5.26;50.37;96445.38;5011620;28;20473;-83
2022/02/01 11:56:00;;;;;;;64.38;21.05;;;;;;;5.40;50.18;96437.44;5011674;28;20030;-80
2022/02/01 11:58:46;;;;;;;40.33;14.57;;;;;;;5.38;50.25;96423.44;4995259;28;20033;-80
2022/02/01 12:01:31;;;;;;;34.30;13.15;;;;;;;5.44;50.36;96444.28;4994619;28;20042;-80
2022/02/01 12:04:16;;;;;;;50.80;12.73;;;;;;;5.29;50.25;96431.94;4978880;28;20061;-79
2022/02/01 12:06:56;;;;;;;33.92;12.95;;;;;;;5.34;50.23;96443.97;5010976;28;20045;-80
2022/02/01 12:09:24;;;;;;;36.50;11.10;;;;;;;5.14;50.71;96440.75;4979319;28;20029;-80
2022/02/01 12:11:58;;;;;;;30.33;10.45;;;;;;;5.28;50.75;96440.81;4994608;28;20472;-80
2022/02/01 12:14:24;;;;;;;33.10;10.80;;;;;;;5.34;50.71;96440.47;4978150;28;20030;-80
2022/02/01 12:16:51;;;;;;;39.53;14.63;;;;;;;5.22;50.61;96435.88;4978065;28;20041;-81
2022/02/01 12:19:37;;;;;;;40.05;15.43;;;;;;;5.48;50.38;96453.75;5010749;28;20114;-79
2022/02/01 12:22:23;;;;;;;48.25;15.57;;;;;;;5.60;50.41;96453.00;5010357;28;20556;-79
2022/02/01 12:24:49;;;;;;;24.55;7.60;;;;;;;5.44;50.45;96461.03;5010798;28;20121;-79
2022/02/01 12:27:15;;;;;;;22.70;5.82;;;;;;;5.25;51.86;96463.06;4994409;28;20617;-80
2022/02/01 12:29:40;;;;;;;20.02;7.03;;;;;;;5.28;51.76;96473.50;4995644;28;20037;-81
2022/02/01 12:32:08;;;;;;;21.88;6.68;;;;;;;5.27;51.99;96479.72;5013679;28;20033;-81
2022/02/01 12:34:35;;;;;;;18.80;5.40;;;;;;;5.03;52.48;96464.38;5014711;28;20493;-80
2022/02/01 12:37:01;;;;;;;17.38;5.55;;;;;;;5.10;51.99;96477.22;5013776;28;20120;-80
2022/02/01 12:39:32;;;;;;;22.88;5.50;;;;;;;5.00;52.74;96473.38;4997339;28;20520;-80
2022/02/01 12:42:15;;;;;;;23.95;5.50;;;;;;;4.94;52.99;96481.66;4998090;28;20024;-80
2022/02/01 12:47:17;;;;;;;15.20;5.60;;;;;;;4.82;52.97;96488.53;5013568;28;20017;-80
2022/02/01 12:49:45;;;;;;;25.55;5.30;;;;;;;4.81;52.68;96501.84;5013531;28;20026;-78
2022/02/01 12:52:20;;;;;;;20.67;5.13;;;;;;;4.99;52.36;96494.63;4997254;28;20033;-80
2022/02/01 12:54:47;;;;;;;14.40;5.45;;;;;;;4.96;52.08;96492.16;4997299;28;20043;-81
2022/02/01 12:57:16;;;;;;;17.98;5.72;;;;;;;4.91;52.77;96506.53;4997085;28;20025;-79
2022/02/01 12:59:44;;;;;;;25.92;5.10;;;;;;;4.95;52.31;96511.66;5013525;28;20033;-78
2022/02/01 13:02:16;;;;;;;10.70;4.15;;;;;;;4.92;51.88;96516.19;5013476;28;20029;-79